Time;durP1;ratioP1;P1;durP2;ratioP2;P2;SDS_P1;SDS_P2;PMS_P1;PMS_P2;Temp;Humidity;BMP_temperature;BMP_pressure;BME280_temperature;BME280_humidity;BME280_pressure;Samples;Min_cycle;Max_cycle;Signal;HPM_P1;HPM_P2
2023/10/22 00:00:44;;;;;;;5.80;2.35;;;10.80;99.90;;;;;;5050306;28;20494;-60
2023/10/22 00:03:10;;;;;;;2.72;1.85;;;10.80;99.90;;;;;;5049323;28;20112;-60
2023/10/22 00:05:35;;;;;;;3.00;1.73;;;10.80;99.90;;;;;;5049858;28;20021;-60
2023/10/22 00:08:01;;;;;;;5.53;2.00;;;10.80;99.90;;;;;;5050384;28;20032;-61
2023/10/22 00:10:27;;;;;;;5.63;2.28;;;10.70;99.90;;;;;;5049413;28;20025;-59
2023/10/22 00:12:53;;;;;;;5.20;3.15;;;10.70;99.90;;;;;;5049526;28;20044;-59
2023/10/22 00:15:20;;;;;;;4.97;2.20;;;10.80;99.90;;;;;;5049115;28;20108;-59
2023/10/22 00:17:47;;;;;;;4.47;1.90;;;10.70;99.90;;;;;;5049290;28;20025;-59
2023/10/22 00:20:12;;;;;;;3.13;2.17;;;10.70;99.90;;;;;;5049428;28;20029;-59
2023/10/22 00:22:38;;;;;;;3.85;1.83;;;10.60;99.90;;;;;;5049551;28;20132;-58
2023/10/22 00:25:05;;;;;;;6.28;2.08;;;10.60;99.90;;;;;;5049387;28;20021;-58
2023/10/22 00:27:32;;;;;;;4.88;2.58;;;10.60;99.90;;;;;;5049077;28;20013;-59
2023/10/22 00:29:58;;;;;;;5.10;2.30;;;10.60;99.90;;;;;;5047452;28;20171;-59
2023/10/22 00:32:23;;;;;;;4.07;2.42;;;10.60;99.90;;;;;;5049127;28;20487;-59
2023/10/22 00:34:49;;;;;;;4.22;2.30;;;10.60;99.90;;;;;;5048946;28;20562;-58
2023/10/22 00:37:14;;;;;;;13.75;3.25;;;10.50;99.90;;;;;;5049037;28;20417;-59
2023/10/22 00:39:41;;;;;;;4.07;2.55;;;10.50;99.90;;;;;;5048468;28;20060;-59
2023/10/22 00:42:07;;;;;;;4.38;2.10;;;10.50;99.90;;;;;;5048484;28;20078;-58
2023/10/22 00:44:34;;;;;;;6.25;2.15;;;10.40;99.90;;;;;;5048219;28;20032;-59
2023/10/22 00:47:00;;;;;;;7.68;2.33;;;10.40;99.90;;;;;;5047777;28;20397;-59
2023/10/22 00:49:25;;;;;;;6.63;2.58;;;10.40;99.90;;;;;;5049295;28;20033;-59
2023/10/22 00:51:51;;;;;;;3.22;2.10;;;10.40;99.90;;;;;;5049277;28;20105;-59
2023/10/22 00:54:18;;;;;;;4.70;2.33;;;10.40;99.90;;;;;;5049290;28;20056;-59
2023/10/22 00:56:44;;;;;;;11.55;2.65;;;10.40;99.90;;;;;;5048937;28;20029;-58
2023/10/22 00:59:11;;;;;;;3.95;2.47;;;10.40;99.90;;;;;;5049335;28;20044;-58
2023/10/22 01:01:37;;;;;;;6.72;2.67;;;10.40;99.90;;;;;;5049396;28;20025;-59
2023/10/22 01:04:03;;;;;;;4.95;2.58;;;10.40;99.90;;;;;;5049055;28;20032;-58
2023/10/22 01:06:30;;;;;;;3.92;2.10;;;10.40;99.90;;;;;;5048699;28;20108;-58
2023/10/22 01:08:55;;;;;;;2.80;2.40;;;10.50;99.90;;;;;;5049755;28;20019;-59
2023/10/22 01:11:21;;;;;;;9.43;2.20;;;10.40;99.90;;;;;;5049453;28;20491;-59
2023/10/22 01:13:47;;;;;;;4.13;2.50;;;10.40;99.90;;;;;;5047742;28;20047;-58
2023/10/22 01:16:12;;;;;;;6.22;2.42;;;10.50;99.90;;;;;;5049070;28;20025;-58
2023/10/22 01:18:38;;;;;;;6.10;2.95;;;10.40;99.90;;;;;;5049011;28;20509;-59
2023/10/22 01:21:03;;;;;;;4.18;2.53;;;10.50;99.90;;;;;;5048454;28;20049;-58
2023/10/22 01:23:29;;;;;;;5.82;2.35;;;10.50;99.90;;;;;;5048916;28;20241;-59
2023/10/22 01:25:55;;;;;;;6.68;2.95;;;10.40;99.90;;;;;;5047282;28;20495;-59
2023/10/22 01:28:20;;;;;;;7.10;2.38;;;10.40;99.90;;;;;;5049012;28;20107;-59
2023/10/22 01:30:46;;;;;;;7.32;2.78;;;10.50;99.90;;;;;;5048847;28;20025;-59
2023/10/22 01:33:11;;;;;;;6.10;3.10;;;10.40;99.90;;;;;;5047238;28;20443;-58
2023/10/22 01:35:37;;;;;;;4.85;2.30;;;10.50;99.90;;;;;;5048267;28;20029;-59
2023/10/22 01:38:03;;;;;;;6.97;2.35;;;10.40;99.90;;;;;;5048616;28;20139;-58
2023/10/22 01:40:29;;;;;;;4.03;1.98;;;10.50;99.90;;;;;;5048122;28;20033;-58
2023/10/22 01:42:54;;;;;;;5.78;2.20;;;10.40;99.90;;;;;;5048516;28;20103;-58
2023/10/22 01:45:20;;;;;;;6.18;2.55;;;10.50;99.90;;;;;;5048437;28;20013;-59
2023/10/22 01:47:46;;;;;;;8.45;2.30;;;10.50;99.90;;;;;;5047213;28;20031;-58
2023/10/22 01:50:12;;;;;;;5.38;2.85;;;10.50;99.90;;;;;;5048786;28;20021;-59
2023/10/22 01:52:37;;;;;;;5.53;2.10;;;10.60;99.90;;;;;;5048353;28;20063;-58
2023/10/22 01:55:03;;;;;;;3.70;2.03;;;10.60;99.90;;;;;;5048835;28;20021;-58
2023/10/22 01:57:29;;;;;;;4.95;1.90;;;10.50;99.90;;;;;;5047959;28;20116;-58
2023/10/22 01:59:54;;;;;;;3.35;1.88;;;10.60;99.90;;;;;;5041659;28;20037;-59
2023/10/22 02:02:20;;;;;;;5.72;2.22;;;10.50;99.90;;;;;;5048254;28;20031;-59
2023/10/22 02:04:45;;;;;;;5.05;2.38;;;10.50;99.90;;;;;;5048625;28;20056;-59
2023/10/22 02:07:11;;;;;;;3.83;1.95;;;10.50;99.90;;;;;;5048192;28;20029;-59
2023/10/22 02:09:37;;;;;;;4.35;1.92;;;10.50;99.90;;;;;;5046906;28;20122;-60
2023/10/22 02:12:04;;;;;;;4.35;2.00;;;10.50;99.90;;;;;;5046914;28;20033;-59
2023/10/22 02:14:29;;;;;;;5.15;1.90;;;10.50;99.90;;;;;;5048134;28;20047;-58
2023/10/22 02:16:55;;;;;;;5.03;2.40;;;10.50;99.90;;;;;;5047957;28;20271;-59
2023/10/22 02:19:20;;;;;;;6.72;2.53;;;10.50;99.90;;;;;;5048249;28;20025;-59
2023/10/22 02:21:46;;;;;;;3.65;1.95;;;10.50;99.90;;;;;;5047921;28;20013;-59
2023/10/22 02:24:12;;;;;;;3.65;2.20;;;10.50;99.90;;;;;;5047921;28;20025;-59
2023/10/22 02:26:37;;;;;;;3.88;1.92;;;10.50;99.90;;;;;;5049454;28;20108;-59
2023/10/22 02:29:03;;;;;;;4.70;1.98;;;10.50;99.90;;;;;;5052309;28;20100;-59
2023/10/22 02:31:28;;;;;;;2.65;1.92;;;10.50;99.90;;;;;;5052409;28;20033;-59
2023/10/22 02:34:05;;;;;;;3.80;2.45;;;10.50;99.90;;;;;;5052251;28;20020;-59
2023/10/22 02:36:30;;;;;;;3.10;1.92;;;10.40;99.90;;;;;;5051481;28;20029;-59
2023/10/22 02:38:56;;;;;;;4.05;1.92;;;10.40;99.90;;;;;;5051483;28;20044;-59
2023/10/22 02:41:22;;;;;;;4.78;2.10;;;10.40;99.90;;;;;;5051976;28;20071;-59
2023/10/22 02:43:47;;;;;;;6.05;2.47;;;10.40;99.90;;;;;;5051687;28;20021;-59
2023/10/22 02:46:15;;;;;;;4.05;1.80;;;10.40;99.90;;;;;;5051443;28;20028;-59
2023/10/22 02:48:40;;;;;;;6.05;1.90;;;10.40;99.90;;;;;;5051559;28;20449;-59
2023/10/22 02:51:06;;;;;;;2.92;1.98;;;10.40;99.90;;;;;;5051445;28;20109;-59
2023/10/22 02:53:32;;;;;;;3.60;1.90;;;10.40;99.90;;;;;;5051543;28;20035;-59
2023/10/22 02:56:01;;;;;;;3.78;2.05;;;10.40;99.90;;;;;;5050180;28;20424;-59
2023/10/22 02:58:29;;;;;;;3.40;1.90;;;10.40;99.90;;;;;;5051430;28;20029;-59
2023/10/22 03:00:55;;;;;;;3.83;1.95;;;10.40;99.90;;;;;;5051519;28;20275;-59
2023/10/22 03:03:21;;;;;;;4.30;2.17;;;10.40;99.90;;;;;;5051730;28;20017;-59
2023/10/22 03:05:47;;;;;;;3.58;1.85;;;10.40;99.90;;;;;;5051518;28;20044;-59
2023/10/22 03:08:12;;;;;;;2.65;1.73;;;10.40;99.90;;;;;;5051847;28;20017;-59
2023/10/22 03:10:38;;;;;;;26.00;16.52;;;10.40;99.90;;;;;;5051589;28;20116;-59
2023/10/22 03:13:04;;;;;;;16.05;10.82;;;10.40;99.90;;;;;;5051347;28;20100;-59
2023/10/22 03:15:30;;;;;;;9.05;5.40;;;10.40;99.90;;;;;;5051172;28;20486;-59
2023/10/22 03:17:56;;;;;;;4.35;2.75;;;10.40;99.90;;;;;;5050987;28;20033;-59
2023/10/22 03:20:25;;;;;;;6.38;2.40;;;10.40;99.90;;;;;;5051714;28;20029;-59
2023/10/22 03:22:51;;;;;;;6.05;1.70;;;10.40;99.90;;;;;;5051388;28;20082;-59
2023/10/22 03:25:18;;;;;;;3.65;2.20;;;10.50;99.90;;;;;;5050064;28;20021;-59
2023/10/22 03:27:43;;;;;;;2.63;1.80;;;10.40;99.90;;;;;;5051032;28;20025;-59
2023/10/22 03:30:10;;;;;;;4.78;1.90;;;10.40;99.90;;;;;;5051313;28;20098;-59
2023/10/22 03:32:36;;;;;;;5.65;2.28;;;10.40;99.90;;;;;;5050787;28;20032;-59
2023/10/22 03:35:06;;;;;;;3.95;1.98;;;10.30;99.90;;;;;;5050616;28;20036;-59
2023/10/22 03:37:31;;;;;;;5.63;1.80;;;10.40;99.90;;;;;;5049230;28;20025;-59
2023/10/22 03:39:57;;;;;;;4.60;1.88;;;10.30;99.90;;;;;;5050763;28;20033;-59
2023/10/22 03:42:22;;;;;;;4.18;1.95;;;10.30;99.90;;;;;;5050877;28;20040;-59
2023/10/22 03:44:48;;;;;;;3.03;1.90;;;10.30;99.90;;;;;;5050625;28;20031;-59
2023/10/22 03:47:13;;;;;;;2.30;1.40;;;10.20;99.90;;;;;;5050498;28;20021;-59
2023/10/22 03:49:39;;;;;;;5.82;1.70;;;10.20;99.90;;;;;;5050466;28;20040;-58
2023/10/22 03:52:05;;;;;;;14.65;1.90;;;10.20;99.90;;;;;;5050642;28;20032;-59
2023/10/22 03:54:31;;;;;;;8.50;1.80;;;10.30;99.90;;;;;;5050877;28;20367;-60
2023/10/22 03:56:56;;;;;;;9.40;3.08;;;10.30;99.90;;;;;;5050350;28;20067;-59
2023/10/22 03:59:22;;;;;;;5.25;2.00;;;10.30;99.90;;;;;;5050439;28;20021;-59
2023/10/22 04:01:47;;;;;;;8.18;1.73;;;10.30;99.90;;;;;;5050252;28;20470;-59
2023/10/22 04:04:13;;;;;;;3.28;1.55;;;10.40;99.90;;;;;;5050067;28;20017;-59
2023/10/22 04:06:38;;;;;;;1.88;1.50;;;10.40;99.90;;;;;;5049763;28;20029;-58
2023/10/22 04:09:04;;;;;;;5.72;1.90;;;10.40;99.90;;;;;;5050363;28;20565;-59
2023/10/22 04:11:29;;;;;;;2.70;1.75;;;10.30;99.90;;;;;;5050289;28;20029;-59
2023/10/22 04:13:55;;;;;;;2.67;1.42;;;10.40;99.90;;;;;;5049913;28;20074;-59
2023/10/22 04:16:20;;;;;;;10.90;1.60;;;10.30;99.90;;;;;;5049526;28;20082;-59
2023/10/22 04:18:46;;;;;;;3.50;1.33;;;10.30;99.90;;;;;;5049971;28;20493;-59
2023/10/22 04:21:15;;;;;;;2.20;1.45;;;10.40;99.90;;;;;;5050090;28;20025;-59
2023/10/22 04:23:41;;;;;;;6.82;1.83;;;10.40;99.90;;;;;;5049801;28;20017;-59
2023/10/22 04:26:14;;;;;;;4.82;1.90;;;10.50;99.90;;;;;;5049649;28;20539;-59
2023/10/22 04:28:43;;;;;;;4.28;1.65;;;10.50;99.90;;;;;;5050237;28;20187;-59
2023/10/22 04:31:11;;;;;;;3.35;1.42;;;10.50;99.90;;;;;;5050190;28;20033;-59
2023/10/22 04:33:37;;;;;;;4.60;1.38;;;10.50;99.90;;;;;;5050473;28;20025;-59
2023/10/22 04:36:04;;;;;;;3.65;1.35;;;10.50;99.90;;;;;;5050091;28;20024;-59
2023/10/22 04:38:30;;;;;;;4.63;1.73;;;10.50;99.90;;;;;;5050354;28;20221;-59
2023/10/22 04:40:56;;;;;;;2.90;1.60;;;10.50;99.90;;;;;;5047352;28;20024;-59
2023/10/22 04:43:21;;;;;;;3.88;1.60;;;10.50;99.90;;;;;;5035701;28;20025;-59
2023/10/22 04:45:48;;;;;;;4.43;1.42;;;10.50;99.90;;;;;;5037749;28;20022;-59
2023/10/22 04:48:14;;;;;;;3.58;1.45;;;10.50;99.90;;;;;;5042186;28;20021;-59
2023/10/22 04:50:41;;;;;;;3.80;1.33;;;10.40;99.90;;;;;;5041788;28;20033;-59
2023/10/22 04:53:06;;;;;;;8.00;2.72;;;10.50;99.90;;;;;;5043541;28;20021;-59
2023/10/22 04:55:32;;;;;;;6.35;1.67;;;10.50;99.90;;;;;;5039205;28;20021;-59
2023/10/22 04:57:57;;;;;;;2.25;1.23;;;10.50;99.90;;;;;;5038725;28;20033;-60
2023/10/22 05:00:23;;;;;;;4.32;1.98;;;10.50;99.90;;;;;;5036225;28;20029;-59
2023/10/22 05:02:49;;;;;;;6.13;1.90;;;10.40;99.90;;;;;;5042095;28;20024;-59
2023/10/22 05:05:14;;;;;;;5.35;1.60;;;10.40;99.90;;;;;;5049752;28;20382;-59
2023/10/22 05:07:40;;;;;;;3.45;1.38;;;10.40;99.90;;;;;;5049399;28;20022;-59
2023/10/22 05:10:06;;;;;;;2.67;1.50;;;10.40;99.90;;;;;;5049714;28;20275;-59
2023/10/22 05:12:32;;;;;;;2.97;1.30;;;10.60;99.90;;;;;;5049864;28;20139;-59
2023/10/22 05:14:57;;;;;;;2.67;1.40;;;10.60;99.90;;;;;;5049476;28;20741;-59
2023/10/22 05:17:26;;;;;;;2.72;1.42;;;10.50;99.90;;;;;;5049295;28;20490;-59
2023/10/22 05:19:52;;;;;;;7.35;1.65;;;10.50;99.90;;;;;;5049392;28;20099;-59
2023/10/22 05:22:17;;;;;;;3.63;1.50;;;10.60;99.90;;;;;;5049394;28;20033;-59
2023/10/22 05:24:47;;;;;;;6.05;1.40;;;10.60;99.90;;;;;;5048036;28;20082;-59
2023/10/22 05:27:13;;;;;;;3.95;1.85;;;10.60;99.90;;;;;;5049420;28;20496;-59
2023/10/22 05:29:39;;;;;;;2.65;1.45;;;10.50;99.90;;;;;;5037467;28;20036;-59
2023/10/22 05:32:04;;;;;;;6.63;1.52;;;10.50;99.90;;;;;;5038754;28;20028;-59
2023/10/22 05:34:31;;;;;;;2.17;1.08;;;10.50;99.90;;;;;;5035887;28;20050;-59
2023/10/22 05:36:57;;;;;;;3.78;1.63;;;10.40;99.90;;;;;;5037314;28;20034;-59
2023/10/22 05:39:22;;;;;;;6.65;1.40;;;10.40;99.90;;;;;;5037051;28;20463;-59
2023/10/22 05:41:48;;;;;;;6.75;2.33;;;10.40;99.90;;;;;;5036355;28;20025;-59
2023/10/22 05:44:14;;;;;;;7.47;1.63;;;10.40;99.90;;;;;;5037637;28;20021;-59
2023/10/22 05:46:41;;;;;;;4.65;1.75;;;10.30;99.90;;;;;;5036283;28;20040;-59
2023/10/22 05:49:09;;;;;;;4.82;1.52;;;10.40;99.90;;;;;;5046670;28;20020;-59
2023/10/22 05:51:35;;;;;;;5.55;1.30;;;10.40;99.90;;;;;;5040794;28;20505;-59
2023/10/22 05:54:01;;;;;;;4.15;1.50;;;10.40;99.90;;;;;;5048881;28;20032;-59
2023/10/22 05:56:32;;;;;;;2.25;1.40;;;10.40;99.90;;;;;;5046957;28;20040;-59
2023/10/22 05:58:58;;;;;;;3.25;2.00;;;10.30;99.90;;;;;;5038251;28;20518;-59
2023/10/22 06:01:24;;;;;;;3.90;1.58;;;10.20;99.90;;;;;;5039703;28;20018;-59
2023/10/22 06:03:50;;;;;;;3.45;1.25;;;10.10;99.90;;;;;;5044749;28;20025;-60
2023/10/22 06:06:22;;;;;;;9.15;1.55;;;10.00;99.90;;;;;;5038937;28;20055;-60
2023/10/22 06:08:48;;;;;;;7.18;1.42;;;9.90;99.90;;;;;;5042562;28;20039;-59
2023/10/22 06:11:14;;;;;;;6.53;1.77;;;10.00;99.90;;;;;;5044363;28;20025;-60
2023/10/22 06:13:40;;;;;;;6.97;2.33;;;10.10;99.90;;;;;;5042963;28;20025;-60
2023/10/22 06:16:07;;;;;;;8.23;2.03;;;10.20;99.90;;;;;;5043336;28;20033;-59
2023/10/22 06:18:33;;;;;;;4.25;1.70;;;10.20;99.90;;;;;;5043341;28;20025;-59
2023/10/22 06:20:58;;;;;;;5.82;1.48;;;10.30;99.90;;;;;;5042167;28;20033;-60
2023/10/22 06:23:24;;;;;;;3.97;1.23;;;10.30;99.90;;;;;;5041790;28;20021;-60
2023/10/22 06:25:49;;;;;;;6.63;1.50;;;10.30;99.90;;;;;;5041973;28;20044;-60
2023/10/22 06:28:15;;;;;;;7.53;2.38;;;10.30;99.90;;;;;;5045205;28;20387;-60
2023/10/22 06:30:40;;;;;;;14.52;2.47;;;10.40;99.90;;;;;;5044546;28;20521;-60
2023/10/22 06:33:06;;;;;;;14.25;2.38;;;10.40;99.90;;;;;;5043528;28;20025;-59
2023/10/22 06:35:32;;;;;;;6.88;1.92;;;10.40;99.90;;;;;;5045170;28;20033;-60
2023/10/22 06:37:57;;;;;;;3.72;1.40;;;10.50;99.90;;;;;;5043008;28;20021;-60
2023/10/22 06:40:24;;;;;;;4.93;1.80;;;10.40;99.90;;;;;;5045219;28;20033;-60
2023/10/22 06:42:50;;;;;;;6.20;1.48;;;10.50;99.90;;;;;;5043492;28;20081;-60
2023/10/22 06:45:17;;;;;;;5.13;1.50;;;10.50;99.90;;;;;;5045165;28;20017;-60
2023/10/22 06:47:43;;;;;;;1.58;1.00;;;10.50;99.90;;;;;;5051961;28;20075;-60
2023/10/22 06:50:14;;;;;;;7.18;1.45;;;10.50;99.90;;;;;;5052256;28;20348;-59
2023/10/22 06:52:42;;;;;;;5.00;1.30;;;10.50;99.90;;;;;;5050810;28;20037;-60
2023/10/22 06:55:08;;;;;;;9.40;1.60;;;10.50;99.90;;;;;;5050747;28;20490;-60
2023/10/22 06:57:34;;;;;;;3.88;1.13;;;10.50;99.90;;;;;;5051648;28;20040;-59
2023/10/22 06:59:59;;;;;;;2.40;1.17;;;10.60;99.90;;;;;;5051896;28;20409;-60
2023/10/22 07:02:25;;;;;;;1.55;0.98;;;10.60;99.90;;;;;;5052367;28;20020;-60
2023/10/22 07:04:52;;;;;;;2.95;1.10;;;10.60;99.90;;;;;;5051608;28;20021;-59
2023/10/22 07:07:17;;;;;;;3.55;1.23;;;10.60;99.90;;;;;;5051841;28;20051;-59
2023/10/22 07:09:43;;;;;;;3.70;1.10;;;10.70;99.90;;;;;;5047369;28;20052;-60
2023/10/22 07:12:09;;;;;;;4.40;1.27;;;10.70;99.90;;;;;;5051310;28;20265;-60
2023/10/22 07:14:34;;;;;;;3.83;1.40;;;10.70;99.90;;;;;;5044168;28;20115;-60
2023/10/22 07:17:00;;;;;;;5.18;1.80;;;10.70;99.90;;;;;;5051175;28;20052;-60
2023/10/22 07:19:25;;;;;;;6.32;1.85;;;10.90;99.90;;;;;;5051974;28;20029;-60
2023/10/22 07:21:51;;;;;;;4.90;1.65;;;11.00;99.90;;;;;;5050603;28;20451;-60
2023/10/22 07:24:16;;;;;;;4.15;1.52;;;11.20;99.90;;;;;;5043808;28;20489;-59
2023/10/22 07:26:42;;;;;;;5.70;1.17;;;11.40;99.90;;;;;;5042482;28;20013;-60
2023/10/22 07:29:07;;;;;;;4.00;1.25;;;11.60;99.90;;;;;;5042433;28;20084;-60
2023/10/22 07:31:33;;;;;;;8.27;1.80;;;11.70;99.90;;;;;;5042941;28;20033;-59
2023/10/22 07:33:59;;;;;;;2.65;1.23;;;11.80;99.90;;;;;;5041636;28;20029;-59
2023/10/22 07:36:24;;;;;;;5.15;1.80;;;11.90;99.90;;;;;;5050670;28;20029;-60
2023/10/22 07:38:52;;;;;;;7.30;1.75;;;12.00;99.90;;;;;;5045656;28;20037;-59
2023/10/22 07:41:19;;;;;;;6.63;1.60;;;12.10;99.90;;;;;;5051333;28;20027;-60
2023/10/22 07:43:45;;;;;;;5.55;1.30;;;12.20;99.90;;;;;;5050866;28;20017;-60
2023/10/22 07:46:11;;;;;;;4.00;1.20;;;12.30;99.90;;;;;;5050808;28;20025;-60
2023/10/22 07:48:37;;;;;;;5.55;1.52;;;12.40;99.90;;;;;;5046664;28;20482;-60
2023/10/22 07:51:13;;;;;;;7.55;1.40;;;12.60;99.90;;;;;;5040567;28;20034;-60
2023/10/22 07:53:40;;;;;;;4.95;1.65;;;12.70;99.90;;;;;;5047323;28;20029;-60
2023/10/22 07:56:06;;;;;;;3.58;1.40;;;12.90;99.90;;;;;;5045099;28;20130;-60
2023/10/22 07:58:32;;;;;;;2.10;1.17;;;13.10;99.90;;;;;;5050905;28;20397;-58
2023/10/22 08:00:59;;;;;;;6.20;1.58;;;13.20;99.90;;;;;;5050592;28;20025;-58
2023/10/22 08:03:27;;;;;;;5.10;1.40;;;13.30;99.90;;;;;;5050534;28;20028;-58
2023/10/22 08:05:52;;;;;;;6.85;1.73;;;13.40;99.90;;;;;;5050125;28;20029;-58
2023/10/22 08:08:18;;;;;;;5.22;1.83;;;13.50;99.90;;;;;;5050737;28;20029;-58
2023/10/22 08:10:43;;;;;;;4.72;1.70;;;13.60;99.90;;;;;;5050545;28;20448;-58
2023/10/22 08:13:09;;;;;;;4.40;1.10;;;13.70;99.90;;;;;;5045993;28;20057;-58
2023/10/22 08:15:34;;;;;;;3.13;1.35;;;13.80;99.90;;;;;;5040715;28;20029;-58
2023/10/22 08:18:00;;;;;;;3.13;1.20;;;13.90;99.90;;;;;;5039371;28;20394;-58
2023/10/22 08:20:25;;;;;;;7.15;1.52;;;14.10;99.90;;;;;;5039096;28;20066;-58
2023/10/22 08:22:51;;;;;;;2.28;1.20;;;14.20;99.90;;;;;;5038009;28;20390;-58
2023/10/22 08:25:16;;;;;;;5.40;1.40;;;14.30;99.90;;;;;;5039033;28;20490;-58
2023/10/22 08:27:42;;;;;;;3.17;1.45;;;14.40;99.90;;;;;;5050212;28;20032;-58
2023/10/22 08:30:08;;;;;;;3.17;1.38;;;14.50;99.90;;;;;;5050417;28;20036;-58
2023/10/22 08:32:34;;;;;;;5.57;1.50;;;14.60;99.90;;;;;;5049886;28;20029;-58
2023/10/22 08:34:59;;;;;;;2.58;1.17;;;14.60;99.90;;;;;;5049792;28;20037;-58
2023/10/22 08:37:25;;;;;;;3.25;1.40;;;14.60;99.90;;;;;;5049807;28;20477;-59
2023/10/22 08:39:50;;;;;;;4.25;1.80;;;14.60;99.90;;;;;;5049615;28;20360;-58
2023/10/22 08:42:23;;;;;;;1.85;1.42;;;14.70;99.90;;;;;;5050148;28;20025;-58
2023/10/22 08:44:49;;;;;;;7.93;1.50;;;14.70;99.90;;;;;;5049774;28;20406;-59
2023/10/22 08:47:16;;;;;;;2.72;1.20;;;14.80;99.90;;;;;;5047129;28;20017;-58
2023/10/22 08:49:41;;;;;;;4.10;1.20;;;14.90;99.90;;;;;;5042637;28;20391;-59
2023/10/22 08:52:08;;;;;;;3.38;1.45;;;15.00;99.90;;;;;;5043202;28;20032;-58
2023/10/22 08:54:35;;;;;;;7.38;1.85;;;15.00;99.90;;;;;;5048677;28;20021;-58
2023/10/22 08:57:01;;;;;;;3.55;1.00;;;15.10;99.90;;;;;;5038969;28;20526;-58
2023/10/22 08:59:27;;;;;;;4.93;1.52;;;15.10;99.90;;;;;;5040562;28;20028;-58
2023/10/22 09:01:53;;;;;;;5.95;1.10;;;15.30;99.90;;;;;;5037384;28;20032;-59
2023/10/22 09:04:19;;;;;;;7.80;1.55;;;15.40;99.90;;;;;;5040682;28;20128;-58
2023/10/22 09:06:45;;;;;;;9.65;1.65;;;15.40;99.90;;;;;;5041836;28;20017;-58
2023/10/22 09:09:27;;;;;;;4.40;1.52;;;15.30;99.90;;;;;;5041542;28;20014;-58
2023/10/22 09:11:56;;;;;;;4.43;1.52;;;15.10;99.90;;;;;;5039994;28;20028;-58
2023/10/22 09:14:23;;;;;;;2.35;1.17;;;15.10;99.90;;;;;;5048823;28;20063;-58
2023/10/22 09:16:49;;;;;;;9.18;1.70;;;15.10;99.90;;;;;;5049296;28;20032;-58
2023/10/22 09:19:32;;;;;;;4.10;1.60;;;15.00;99.90;;;;;;5049422;28;20017;-58
2023/10/22 09:21:58;;;;;;;3.95;1.38;;;15.00;99.90;;;;;;5049744;28;20021;-58
2023/10/22 09:24:23;;;;;;;5.78;1.45;;;14.90;99.90;;;;;;5049118;28;20037;-58
2023/10/22 09:26:49;;;;;;;5.32;1.77;;;14.80;99.90;;;;;;5049131;28;20140;-58
2023/10/22 09:29:16;;;;;;;6.38;1.95;;;14.80;99.90;;;;;;5049370;28;20088;-57
2023/10/22 09:31:53;;;;;;;5.65;1.40;;;14.80;99.90;;;;;;5049252;28;20071;-58
2023/10/22 09:34:25;;;;;;;3.42;1.45;;;15.00;99.90;;;;;;5049119;28;20536;-59
2023/10/22 09:36:54;;;;;;;4.32;1.45;;;14.90;99.90;;;;;;5048826;28;20093;-58
2023/10/22 09:39:37;;;;;;;5.90;1.65;;;14.90;99.90;;;;;;5047486;28;20033;-58
2023/10/22 09:42:04;;;;;;;6.80;1.42;;;14.90;99.90;;;;;;5049176;28;20021;-58
2023/10/22 09:44:34;;;;;;;2.38;1.20;;;14.80;99.90;;;;;;5047563;28;20025;-58
2023/10/22 09:47:01;;;;;;;4.40;1.48;;;14.90;99.90;;;;;;5047153;28;20017;-58
2023/10/22 09:49:32;;;;;;;6.43;1.60;;;15.10;99.90;;;;;;5049114;28;20017;-58
2023/10/22 09:52:00;;;;;;;2.63;1.35;;;15.20;99.90;;;;;;5044472;28;20080;-58
2023/10/22 09:54:39;;;;;;;2.85;1.30;;;15.20;99.90;;;;;;5047383;28;20060;-58
2023/10/22 09:57:12;;;;;;;3.33;1.30;;;15.30;99.90;;;;;;5040142;28;20041;-58
2023/10/22 09:59:39;;;;;;;4.78;1.30;;;15.30;99.90;;;;;;5041335;28;20037;-58
2023/10/22 10:02:06;;;;;;;4.50;1.27;;;15.60;99.90;;;;;;5038830;28;20022;-58
2023/10/22 10:04:33;;;;;;;6.43;1.55;;;15.80;99.90;;;;;;5040770;28;20017;-58
2023/10/22 10:07:02;;;;;;;5.63;1.67;;;16.10;99.90;;;;;;5041253;28;20033;-58
2023/10/22 10:09:29;;;;;;;3.33;1.23;;;16.20;99.90;;;;;;5039875;28;20044;-59
2023/10/22 10:11:56;;;;;;;3.92;1.30;;;16.60;99.90;;;;;;5042012;28;20075;-58
2023/10/22 10:14:44;;;;;;;3.90;1.70;;;16.90;99.90;;;;;;5040319;28;20082;-58
2023/10/22 10:17:11;;;;;;;2.78;1.30;;;16.90;99.90;;;;;;5048451;28;20044;-58
2023/10/22 10:19:37;;;;;;;2.20;0.98;;;16.80;99.90;;;;;;5048695;28;20079;-59
2023/10/22 10:22:03;;;;;;;1.35;0.70;;;16.60;99.90;;;;;;5045664;28;20508;-59
2023/10/22 10:24:30;;;;;;;4.88;1.20;;;16.70;99.90;;;;;;5047358;28;20044;-59
2023/10/22 10:26:56;;;;;;;5.07;1.50;;;16.60;99.90;;;;;;5048403;28;20056;-58
2023/10/22 10:29:30;;;;;;;4.15;1.38;;;16.50;99.90;;;;;;5048554;28;20053;-58
2023/10/22 10:32:15;;;;;;;3.15;1.23;;;16.40;99.90;;;;;;5047799;28;20024;-58
2023/10/22 10:34:46;;;;;;;5.03;1.58;;;16.10;99.90;;;;;;5046213;28;20021;-59
2023/10/22 10:37:16;;;;;;;2.53;1.10;;;15.90;99.90;;;;;;5046343;28;20025;-59
2023/10/22 10:39:54;;;;;;;3.85;1.52;;;15.80;99.90;;;;;;5048009;28;20044;-58
2023/10/22 10:42:28;;;;;;;2.53;1.25;;;15.60;99.90;;;;;;5046767;28;20070;-58
2023/10/22 10:44:54;;;;;;;4.13;1.30;;;15.60;99.90;;;;;;5039731;28;20021;-57
2023/10/22 10:47:24;;;;;;;7.18;1.30;;;15.40;99.90;;;;;;5049187;28;20017;-57
2023/10/22 10:49:49;;;;;;;2.53;1.10;;;15.30;99.90;;;;;;5051547;28;20027;-58
2023/10/22 10:52:15;;;;;;;5.20;1.50;;;15.30;99.90;;;;;;5051756;28;20029;-58
2023/10/22 10:54:40;;;;;;;3.80;1.10;;;15.30;99.90;;;;;;5051573;28;20032;-59
2023/10/22 10:57:06;;;;;;;2.50;1.30;;;15.30;99.90;;;;;;5050112;28;20033;-58
2023/10/22 10:59:34;;;;;;;3.13;1.10;;;15.30;99.90;;;;;;5051855;28;20029;-58
2023/10/22 11:02:04;;;;;;;4.55;1.27;;;15.30;99.90;;;;;;5051532;28;20017;-58
2023/10/22 11:04:30;;;;;;;2.55;1.42;;;15.20;99.90;;;;;;5051084;28;20063;-58
2023/10/22 11:06:56;;;;;;;5.53;1.25;;;15.20;99.90;;;;;;5051457;28;20025;-58
2023/10/22 11:09:23;;;;;;;2.22;1.08;;;15.20;99.90;;;;;;5051390;28;20060;-58
2023/10/22 11:11:55;;;;;;;4.10;1.35;;;15.40;99.90;;;;;;5051340;28;20552;-58
2023/10/22 11:14:21;;;;;;;2.55;1.27;;;15.40;99.90;;;;;;5051158;28;20037;-58
2023/10/22 11:16:51;;;;;;;3.35;1.38;;;15.50;99.90;;;;;;5050348;28;20539;-58
2023/10/22 11:19:24;;;;;;;3.92;1.73;;;15.60;99.90;;;;;;5050178;28;20017;-58
2023/10/22 11:21:51;;;;;;;4.00;1.60;;;15.50;99.90;;;;;;5049488;28;20481;-58
2023/10/22 11:24:18;;;;;;;4.20;1.15;;;15.60;99.90;;;;;;5050475;28;20022;-58
2023/10/22 11:26:44;;;;;;;5.82;1.63;;;15.50;99.90;;;;;;5050199;28;20021;-58
2023/10/22 11:29:11;;;;;;;6.45;1.58;;;15.50;99.90;;;;;;5050876;28;20078;-58
2023/10/22 11:31:36;;;;;;;3.45;1.30;;;15.50;99.90;;;;;;5050558;28;20013;-58
2023/10/22 11:34:15;;;;;;;5.78;1.48;;;15.50;99.90;;;;;;5048836;28;20539;-58
2023/10/22 11:36:40;;;;;;;5.57;1.98;;;15.60;99.90;;;;;;5049569;28;20068;-58
2023/10/22 11:39:19;;;;;;;3.17;1.30;;;15.70;99.90;;;;;;5051399;28;20079;-58
2023/10/22 11:41:45;;;;;;;2.95;1.00;;;15.80;99.90;;;;;;5051172;28;20032;-58
2023/10/22 11:44:30;;;;;;;3.17;1.25;;;15.90;99.90;;;;;;5050387;28;20032;-58
2023/10/22 11:47:15;;;;;;;3.95;1.23;;;16.10;99.90;;;;;;5049207;28;20027;-58
2023/10/22 11:49:45;;;;;;;3.65;1.25;;;16.10;99.90;;;;;;5050590;28;20032;-59
2023/10/22 11:52:16;;;;;;;4.95;1.25;;;16.20;99.90;;;;;;5050842;28;20048;-59
2023/10/22 11:54:43;;;;;;;4.97;1.10;;;16.60;99.90;;;;;;5050457;28;20359;-59
2023/10/22 11:57:08;;;;;;;3.15;1.00;;;16.80;99.90;;;;;;5050298;28;20068;-59
2023/10/22 11:59:34;;;;;;;2.13;1.13;;;16.80;99.90;;;;;;5050356;28;20134;-59
2023/10/22 12:01:59;;;;;;;3.35;1.00;;;17.00;99.90;;;;;;5050734;28;20029;-59
2023/10/22 12:04:25;;;;;;;4.03;1.27;;;17.30;99.90;;;;;;5050646;28;20398;-59
2023/10/22 12:06:50;;;;;;;3.28;1.08;;;18.50;99.90;;;;;;5050153;28;20060;-57
2023/10/22 12:09:16;;;;;;;5.50;1.13;;;19.30;97.90;;;;;;5047347;28;20434;-56
2023/10/22 12:11:41;;;;;;;7.97;1.42;;;19.00;97.90;;;;;;5046387;28;20036;-56
2023/10/22 12:14:07;;;;;;;2.70;1.10;;;18.80;97.70;;;;;;5049913;28;20033;-56
2023/10/22 12:16:32;;;;;;;1.45;0.95;;;19.40;96.90;;;;;;5041803;28;20443;-56
2023/10/22 12:18:58;;;;;;;5.40;1.00;;;19.80;95.40;;;;;;5040151;28;20159;-56
2023/10/22 12:21:24;;;;;;;5.32;1.50;;;19.30;95.90;;;;;;5041976;28;20025;-56
2023/10/22 12:23:49;;;;;;;6.20;1.30;;;18.80;96.10;;;;;;5038602;28;20537;-56
2023/10/22 12:26:15;;;;;;;4.80;1.42;;;18.40;96.70;;;;;;5039399;28;20021;-58
2023/10/22 12:28:40;;;;;;;1.98;0.90;;;17.90;97.60;;;;;;5038505;28;20021;-59
2023/10/22 12:31:07;;;;;;;3.25;1.15;;;18.00;99.50;;;;;;5039828;28;20029;-59
2023/10/22 12:33:33;;;;;;;2.65;1.08;;;17.90;99.20;;;;;;5042694;28;20104;-59
2023/10/22 12:36:02;;;;;;;3.97;1.13;;;17.70;98.30;;;;;;5037278;28;20435;-59
2023/10/22 12:38:28;;;;;;;3.13;0.90;;;17.50;98.60;;;;;;5038777;28;20483;-59
2023/10/22 12:40:53;;;;;;;3.88;1.15;;;17.50;98.70;;;;;;5038025;28;20265;-59
2023/10/22 12:43:19;;;;;;;4.03;1.30;;;17.60;98.70;;;;;;5038871;28;20135;-59